»·PEaware :: DCAAA KGEG-KHLN

DCAAA :: KGEG-KHLN

FLIGHT INFORMATION

Flight Status: Arrived
Operator: Unknown
More flights by this operator :: More flights under this callsign
Pilot: Klaus A. (15485)
Aircraft: BOMBARDIER BD-100 CHALLENGER 300
(CL30)
More flights by this aircraft type
Origin: KGEG Spokane Intl
United States
Destination: KHLN Helena Regl
United States
More flights between these airports :: More routes between these airports
Route: +GEG MLP MSO V2 HLN
File this flight plan on PilotEdge
Remarks: PBN / D1 DOF / 180810 REG / DCAAA EET / KZLC0020 PER / C RMK / TCAS SIMBRIEF
Altitude:
(Current/Filed)
26,000ft
Speed:
(Current/Filed)
455kts
Departed: 10-Aug-18 07:48 AM
Arrived: 10-Aug-18 08:42 AM
Distance/Time
Traveled:
235nm/0:53
Distance/Time
To Go:
Arrived

Flight Plot

Page will automatically refresh every two minutes.

Flight plan parsing failed; only flown route is shown


Map Options




Map Legend


Flown Route
Filed Route
Departure Airport
Arrival Airport
Navaid (VOR, NDB)
Fix

Horizontal Profiles

Position Reports

Time Latitude Longitude Heading Altitude Ground
Speed
10-Aug-18 07:24 47.620375 -117.528554 0 2391ft 0kts
10-Aug-18 07:25 47.620375 -117.528554 0 2391ft 0kts
10-Aug-18 07:26 47.620375 -117.528554 0 2391ft 0kts
10-Aug-18 07:27 47.620375 -117.528554 0 2391ft 0kts
10-Aug-18 07:28 47.620375 -117.528554 0 2391ft 0kts
10-Aug-18 07:29 47.620375 -117.528554 0 2391ft 0kts
10-Aug-18 07:30 47.620375 -117.528554 0 2391ft 0kts
10-Aug-18 07:31 47.620375 -117.528554 0 2391ft 0kts
10-Aug-18 07:32 47.620375 -117.528554 0 2391ft 0kts
10-Aug-18 07:33 47.620375 -117.528554 0 2391ft 0kts
10-Aug-18 07:34 47.620375 -117.528554 0 2391ft 0kts
10-Aug-18 07:35 47.620375 -117.528554 0 2391ft 0kts
10-Aug-18 07:36 47.620375 -117.528554 0 2391ft 0kts
10-Aug-18 07:37 47.620375 -117.528554 0 2391ft 0kts
10-Aug-18 07:38 47.620375 -117.528554 0 2391ft 0kts
10-Aug-18 07:39 47.620375 -117.528554 0 2391ft 0kts
10-Aug-18 07:40 47.620375 -117.528554 0 2391ft 0kts
10-Aug-18 07:41 47.620375 -117.528554 0 2391ft 0kts
10-Aug-18 07:42 47.620375 -117.528554 0 2391ft 0kts
10-Aug-18 07:43 47.620375 -117.528554 0 2391ft 0kts
10-Aug-18 07:44 47.620375 -117.528554 0 2391ft 0kts
10-Aug-18 07:45 47.620375 -117.528554 0 2391ft 0kts
10-Aug-18 07:46 47.620375 -117.528554 0 2391ft 0kts
10-Aug-18 07:47 47.620563 -117.528623 337 2391ft 6kts
10-Aug-18 07:48 47.619196 -117.532867 225 2391ft 27kts
10-Aug-18 07:49 47.611255 -117.544800 225 2391ft 47kts
10-Aug-18 07:50 47.609435 -117.548937 315 2391ft 0kts
10-Aug-18 07:51 47.609435 -117.548937 315 2391ft 0kts
10-Aug-18 07:52 47.609535 -117.549080 315 2391ft 7kts
10-Aug-18 07:53 47.623372 -117.530519 40 2920ft 167kts
10-Aug-18 07:54 47.671114 -117.476712 37 5161ft 248kts
10-Aug-18 07:55 47.725263 -117.407218 75 7453ft 273kts
10-Aug-18 07:56 47.694272 -117.311978 129 10131ft 271kts
10-Aug-18 07:57 47.646129 -117.217414 129 12829ft 318kts
10-Aug-18 07:58 47.600044 -117.095042 111 16368ft 367kts
10-Aug-18 07:59 47.575717 -116.942659 102 18959ft 389kts
10-Aug-18 08:00 47.559327 -116.782683 100 21374ft 396kts
10-Aug-18 08:01 47.544881 -116.621428 100 23654ft 402kts
10-Aug-18 08:02 47.530188 -116.453860 100 25042ft 430kts
10-Aug-18 08:03 47.514441 -116.275104 100 25112ft 455kts
10-Aug-18 08:04 47.497919 -116.090408 100 25301ft 453kts
10-Aug-18 08:05 47.481127 -115.906131 100 25301ft 452kts
10-Aug-18 08:06 47.464081 -115.722567 100 25302ft 449kts
10-Aug-18 08:07 47.423020 -115.552869 118 25302ft 440kts
10-Aug-18 08:08 47.369158 -115.391213 119 25302ft 439kts
10-Aug-18 08:09 47.315065 -115.233633 120 25300ft 438kts
10-Aug-18 08:10 47.259748 -115.074222 120 25300ft 437kts
10-Aug-18 08:11 47.204110 -114.915039 119 25300ft 436kts
10-Aug-18 08:12 47.148469 -114.756804 119 25203ft 438kts
10-Aug-18 08:13 47.092604 -114.598911 119 25199ft 436kts
10-Aug-18 08:14 47.036599 -114.441543 119 25200ft 435kts
10-Aug-18 08:15 46.981425 -114.287441 120 25198ft 435kts
10-Aug-18 08:16 46.925137 -114.131189 119 25199ft 434kts
10-Aug-18 08:17 46.893323 -113.964046 103 25202ft 438kts
10-Aug-18 08:18 46.869135 -113.789303 102 25202ft 438kts
10-Aug-18 08:19 46.845437 -113.615102 102 25202ft 438kts
10-Aug-18 08:20 46.821579 -113.440616 102 25203ft 439kts
10-Aug-18 08:21 46.801922 -113.298253 103 25199ft 439kts
10-Aug-18 08:22 46.774773 -113.103808 102 22696ft 395kts
10-Aug-18 08:23 46.753818 -112.955453 102 20561ft 386kts
10-Aug-18 08:24 46.735485 -112.826967 102 18731ft 387kts
10-Aug-18 08:25 46.713895 -112.676988 101 16533ft 371kts
10-Aug-18 08:26 46.690107 -112.513273 101 15224ft 329kts
10-Aug-18 08:27 46.674611 -112.407545 101 15227ft 314kts
10-Aug-18 08:28 46.657139 -112.289286 102 15227ft 305kts
10-Aug-18 08:29 46.639180 -112.168997 102 15229ft 305kts
10-Aug-18 08:30 46.621211 -112.049367 102 14551ft 303kts
10-Aug-18 08:31 46.603650 -111.933532 102 12732ft 280kts
10-Aug-18 08:32 46.587602 -111.827596 102 10918ft 259kts
10-Aug-18 08:33 46.572713 -111.728925 102 9105ft 242kts
10-Aug-18 08:34 46.559978 -111.636890 99 7623ft 213kts
10-Aug-18 08:35 46.553209 -111.556610 64 7611ft 192kts
10-Aug-18 08:36 46.582842 -111.573459 249 7671ft 181kts
10-Aug-18 08:37 46.555952 -111.636655 242 7623ft 180kts
10-Aug-18 08:38 46.562838 -111.706480 283 7424ft 189kts
10-Aug-18 08:39 46.573840 -111.776503 283 6466ft 162kts
10-Aug-18 08:40 46.582942 -111.834427 283 5680ft 145kts
10-Aug-18 08:41 46.591897 -111.891624 284 4895ft 143kts
10-Aug-18 08:42 46.600586 -111.947175 285 4138ft 139kts
10-Aug-18 08:43 46.606147 -111.984489 217 3882ft 9kts
10-Aug-18 08:44 46.605316 -111.984834 187 3882ft 0kts
10-Aug-18 08:45 46.604722 -111.984237 136 3881ft 11kts
10-Aug-18 08:46 46.603559 -111.977949 98 3882ft 9kts
10-Aug-18 08:47 46.602938 -111.977104 3 3882ft 0kts
10-Aug-18 08:48 46.602938 -111.977104 3 3882ft 0kts
10-Aug-18 08:49 46.602938 -111.977104 3 3882ft 0kts
10-Aug-18 08:50 46.602938 -111.977104 3 3882ft 0kts

Navigation Log

Ident Type
Flight plan parsing failed, navigation log unavailable